Ikan Bagat — 3EYX8 — position and weather

sailwx.info

Track history (hours):
 
Tides and Currents Weather Stations Pressure Air Temp Water Temp Dewpoint Dewpoint Depression Visibility Wind Speed Wind Dir Waves Ship Positions

Ikan Bagat

Last reported at 2018-Jan-23 06:01 UTC. Time now 2018-Jan-23 06:26 UTC.
Position S 32°57' E 151°53'.

Length 229 m; draft 14.6 m.

Type: Ship. MMSI: 354375000.

Date/timePositionNaut miles runAvg speedWind from/ knotsBaromVisibWave heightAir tempDewpointWater temp
2018-Jan-23 06:01S 32°57' E 151°53'4 7.1
2018-Jan-23 05:31S 32°56' E 151°49'2 4.7
2018-Jan-23 05:01S 32°55' E 151°47'2 3.9
2018-Jan-23 04:31S 32°53' E 151°46'0 0.3
2018-Jan-23 03:59S 32°53' E 151°46'0 0.0
2018-Jan-23 03:29S 32°53' E 151°46'0 0.0
2018-Jan-23 02:56S 32°53' E 151°46'0 0.0
2018-Jan-23 02:26S 32°53' E 151°46'0 0.0
2018-Jan-23 01:59S 32°53' E 151°46'0 0.0
2018-Jan-23 01:26S 32°53' E 151°46'0 0.0
2018-Jan-23 00:56S 32°53' E 151°46'0 0.0
2018-Jan-23 00:29S 32°53' E 151°46'0 0.0
2018-Jan-22 23:56S 32°53' E 151°46'0 0.0
2018-Jan-22 23:29S 32°53' E 151°46'0 0.0
2018-Jan-22 22:59S 32°53' E 151°46'0 0.0
2018-Jan-22 22:29S 32°53' E 151°46'0 0.0
2018-Jan-22 21:56S 32°53' E 151°46'0 0.0
2018-Jan-22 21:17S 32°53' E 151°46'0 0.0
2018-Jan-22 20:56S 32°53' E 151°46'0 0.0
2018-Jan-22 20:26S 32°53' E 151°46'0 0.0
2018-Jan-22 19:59S 32°53' E 151°46'0 0.0
2018-Jan-22 19:29S 32°53' E 151°46'0 0.0
2018-Jan-22 17:32S 32°53' E 151°46'0 0.0
2018-Jan-22 17:20S 32°53' E 151°46'0 0.0
2018-Jan-22 16:59S 32°53' E 151°46'0 0.0
2018-Jan-22 16:29S 32°53' E 151°46'0 0.0
2018-Jan-22 15:59S 32°53' E 151°46'0 0.0
2018-Jan-22 15:26S 32°53' E 151°46'0 0.0
2018-Jan-22 14:59S 32°53' E 151°46'0 0.0
2018-Jan-22 13:53S 32°53' E 151°46'0 0.0
2018-Jan-22 13:29S 32°53' E 151°46'0 0.0
2018-Jan-22 12:56S 32°53' E 151°46'0 0.0
2018-Jan-22 12:26S 32°53' E 151°46'0 0.0
2018-Jan-22 11:56S 32°53' E 151°46'0 0.0
2018-Jan-22 11:29S 32°53' E 151°46'0 0.0
2018-Jan-22 10:59S 32°53' E 151°46'0 0.0
2018-Jan-22 10:26S 32°53' E 151°46'0 0.0
2018-Jan-22 09:56S 32°53' E 151°46'0 0.0
2018-Jan-22 09:29S 32°53' E 151°46'0 0.0
2018-Jan-22 08:59S 32°53' E 151°46'0 0.0
2018-Jan-22 08:26S 32°53' E 151°46'0 0.0
2018-Jan-22 07:56S 32°53' E 151°46'0 0.0
2018-Jan-22 07:29S 32°53' E 151°46'0 0.0
2018-Jan-22 06:59S 32°53' E 151°46'1 1.2
2018-Jan-22 06:30S 32°54' E 151°46'2 3.8
2018-Jan-22 06:01S 32°55' E 151°48'4 7.6
2018-Jan-22 05:30S 32°58' E 151°51'2 3.6
2018-Jan-22 05:00S 32°59' E 151°53'2 3.9
2018-Jan-22 04:31S 32°60' E 151°51'2 3.1
2018-Jan-22 04:00S 33°01' E 151°49'0 0.2
2018-Jan-22 03:28S 33°01' E 151°49'0 0.1
2018-Jan-22 02:58S 33°01' E 151°49'0 0.1
2018-Jan-22 02:28S 33°01' E 151°49'0 0.0
2018-Jan-22 01:58S 33°01' E 151°49'0 0.1
2018-Jan-22 01:28S 33°01' E 151°49'0 0.0
2018-Jan-22 00:58S 33°01' E 151°49'0 0.0
2018-Jan-22 00:28S 33°01' E 151°49'0 0.1
2018-Jan-21 23:58S 33°01' E 151°49'0 0.0
2018-Jan-21 23:28S 33°01' E 151°49'0 0.0
2018-Jan-21 22:58S 33°01' E 151°49'0 0.0
2018-Jan-21 22:28S 33°01' E 151°49'0 0.0
2018-Jan-21 21:58S 33°01' E 151°49'0 0.1
2018-Jan-21 21:25S 33°01' E 151°49'0 0.0
2018-Jan-21 20:58S 33°01' E 151°49'0 0.0
2018-Jan-21 20:28S 33°01' E 151°49'0 0.0
2018-Jan-21 19:58S 33°01' E 151°49'0 0.0
2018-Jan-21 19:25S 33°01' E 151°49'0 0.0
2018-Jan-21 18:58S 33°01' E 151°49'0 0.0
2018-Jan-21 18:28S 33°01' E 151°49'0 0.0
2018-Jan-21 17:58S 33°01' E 151°49'0 0.0
2018-Jan-21 17:28S 33°01' E 151°49'0 0.0
2018-Jan-21 16:58S 33°01' E 151°49'0 0.0
2018-Jan-21 16:28S 33°01' E 151°49'0 0.0
2018-Jan-21 15:58S 33°01' E 151°49'0 0.0
2018-Jan-21 15:28S 33°01' E 151°49'0 0.0
2018-Jan-21 14:58S 33°01' E 151°49'0 0.0
2018-Jan-21 14:28S 33°01' E 151°49'0 0.0
2018-Jan-21 13:58S 33°01' E 151°49'0 0.0
2018-Jan-21 13:28S 33°01' E 151°49'0 0.0
2018-Jan-21 12:58S 33°01' E 151°49'0 0.1
2018-Jan-21 12:28S 33°01' E 151°49'0 0.1
2018-Jan-21 11:58S 33°01' E 151°49'0 0.0
2018-Jan-21 11:28S 33°01' E 151°49'0 0.0
2018-Jan-21 10:58S 33°01' E 151°49'0 0.1
2018-Jan-21 10:28S 33°01' E 151°49'0 0.2
2018-Jan-21 09:58S 33°01' E 151°49'0 0.1
2018-Jan-21 09:28S 33°01' E 151°49'0 0.1
2018-Jan-21 08:55S 33°01' E 151°49'0 0.2
2018-Jan-21 08:28S 33°01' E 151°49'0 0.2
2018-Jan-21 07:58S 33°01' E 151°49'0 0.2
2018-Jan-21 07:28S 33°01' E 151°49'0 0.2
2018-Jan-21 06:58S 33°01' E 151°49'0 0.2
2018-Jan-21 06:28S 33°01' E 151°49'0 0.2
2018-Jan-21 05:58S 33°01' E 151°49'0 0.1
2018-Jan-21 05:28S 33°01' E 151°49'0 0.1
2018-Jan-21 04:58S 33°01' E 151°49'0 0.2
2018-Jan-21 04:28S 33°01' E 151°49'0 0.0
2018-Jan-21 03:58S 33°01' E 151°49'0 0.1
2018-Jan-21 03:28S 33°01' E 151°49'0 0.0
2018-Jan-21 02:58S 33°01' E 151°49'0 0.0
2018-Jan-21 02:28S 33°01' E 151°49'0 0.0
2018-Jan-21 01:58S 33°01' E 151°49'0 0.0
2018-Jan-21 01:28S 33°01' E 151°49'0 0.1
2018-Jan-21 00:55S 33°01' E 151°49'0 0.1
2018-Jan-21 00:28S 33°01' E 151°49'0 0.0
2018-Jan-20 23:58S 33°01' E 151°49'0 0.0
2018-Jan-20 23:28S 33°01' E 151°49'0 0.0
2018-Jan-20 22:58S 33°01' E 151°49'0 0.0
2018-Jan-20 22:28S 33°01' E 151°49'0 0.0
2018-Jan-20 21:58S 33°01' E 151°49'0 0.0
2018-Jan-20 21:28S 33°01' E 151°49'0 0.0
2018-Jan-20 20:58S 33°01' E 151°49'0 0.0
2018-Jan-20 20:28S 33°01' E 151°49'0 0.0
2018-Jan-20 19:58S 33°01' E 151°49'0 0.0
2018-Jan-20 19:28S 33°01' E 151°49'0 0.0
2018-Jan-20 18:58S 33°01' E 151°49'0 0.0
2018-Jan-20 18:28S 33°01' E 151°49'0 0.0
2018-Jan-20 17:58S 33°01' E 151°49'0 0.0
2018-Jan-20 17:28S 33°01' E 151°49'0 0.0
2018-Jan-20 16:58S 33°01' E 151°49'0 0.0
2018-Jan-20 16:28S 33°01' E 151°49'0 0.0
2018-Jan-20 15:58S 33°01' E 151°49'0 0.0
2018-Jan-20 15:28S 33°01' E 151°49'0 0.0
2018-Jan-20 14:58S 33°01' E 151°49'0 0.0
2018-Jan-20 14:28S 33°01' E 151°49'0 0.0
2018-Jan-20 13:58S 33°01' E 151°49'0 0.0
2018-Jan-20 13:28S 33°01' E 151°49'0 0.0
2018-Jan-20 12:58S 33°01' E 151°49'0 0.0
2018-Jan-20 12:25S 33°01' E 151°49'0 0.0
2018-Jan-20 11:55S 33°01' E 151°49'0 0.0
2018-Jan-20 11:28S 33°01' E 151°49'0 0.0
2018-Jan-20 10:58S 33°01' E 151°49'0 0.0
2018-Jan-20 10:28S 33°01' E 151°49'0 0.1
2018-Jan-20 09:58S 33°01' E 151°49'0 0.1
2018-Jan-20 09:28S 33°01' E 151°49'0 0.1
2018-Jan-20 08:58S 33°01' E 151°49'0 0.2
2018-Jan-20 08:22S 33°01' E 151°49'0 0.0
2018-Jan-20 07:58S 33°01' E 151°49'0 0.0
2018-Jan-20 07:28S 33°01' E 151°49'0 0.0
2018-Jan-20 06:55S 33°01' E 151°49'0 0.0
2018-Jan-20 06:28S 33°01' E 151°49'0 0.0
2018-Jan-20 05:58S 33°01' E 151°49'0 0.0
2018-Jan-20 05:28S 33°01' E 151°49'0 0.0
2018-Jan-20 04:58S 33°01' E 151°49'0 0.0
2018-Jan-20 04:28S 33°01' E 151°49'0 0.1
2018-Jan-20 03:58S 33°01' E 151°49'0 0.0
2018-Jan-20 03:28S 33°01' E 151°49'0 0.0
2018-Jan-20 02:58S 33°01' E 151°49'0 0.0
2018-Jan-20 02:28S 33°01' E 151°49'0 0.1
2018-Jan-20 01:58S 33°01' E 151°49'0 0.0
2018-Jan-20 01:25S 33°01' E 151°49'0 0.0
2018-Jan-20 00:55S 33°01' E 151°49'0 0.1
2018-Jan-20 00:25S 33°01' E 151°49'0 0.0
2018-Jan-19 23:55S 33°01' E 151°49'0 0.0
2018-Jan-19 23:28S 33°01' E 151°49'0 0.0
2018-Jan-19 22:55S 33°01' E 151°49'0 0.0
2018-Jan-19 22:28S 33°01' E 151°49'0 0.0
2018-Jan-19 21:55S 33°01' E 151°49'0 0.0
2018-Jan-19 21:28S 33°01' E 151°49'0 0.1
2018-Jan-19 20:58S 33°01' E 151°49'0 0.1
2018-Jan-19 20:28S 33°01' E 151°49'0 0.1
2018-Jan-19 19:58S 33°01' E 151°49'0 0.0
2018-Jan-19 19:28S 33°01' E 151°49'0 0.0
2018-Jan-19 18:58S 33°01' E 151°49'0 0.0
2018-Jan-19 18:28S 33°01' E 151°49'0 0.0
2018-Jan-19 17:55S 33°01' E 151°49'0 0.1
2018-Jan-19 17:28S 33°01' E 151°49'0 0.1
2018-Jan-19 16:58S 33°01' E 151°49'0 0.0
2018-Jan-19 16:25S 33°01' E 151°49'0 0.0
2018-Jan-19 15:59S 33°01' E 151°49'0 0.1
2018-Jan-19 15:25S 33°01' E 151°49'0 0.0
2018-Jan-19 14:49S 33°01' E 151°49'0 0.1
2018-Jan-19 14:25S 33°01' E 151°49'0 0.1
2018-Jan-19 13:58S 33°01' E 151°49'0 0.0
2018-Jan-19 13:28S 33°01' E 151°49'0 0.1
2018-Jan-19 12:55S 33°01' E 151°49'0 0.1
2018-Jan-19 12:28S 33°01' E 151°49'0 0.1
2018-Jan-19 11:58S 33°01' E 151°49'0 0.0
2018-Jan-19 11:28S 33°01' E 151°49'0 0.0
2018-Jan-19 10:58S 33°01' E 151°49'0 0.1
2018-Jan-19 10:28S 33°01' E 151°49'0 0.1
2018-Jan-19 09:52S 33°01' E 151°49'0 0.0
2018-Jan-19 09:28S 33°01' E 151°49'0 0.0
2018-Jan-19 08:55S 33°01' E 151°49'0 0.0
2018-Jan-19 08:28S 33°01' E 151°49'0 0.0
2018-Jan-19 07:58S 33°01' E 151°49'0 0.1
2018-Jan-19 07:28S 33°01' E 151°49'0 0.1
2018-Jan-19 06:58S 33°01' E 151°49'0 0.0
2018-Jan-19 06:28S 33°01' E 151°49'0 0.0
2018-Jan-19 05:58S 33°01' E 151°49'0 0.0
2018-Jan-19 05:28S 33°01' E 151°49'0 0.0
2018-Jan-19 04:58S 33°01' E 151°49'0 0.1
2018-Jan-19 04:28S 33°01' E 151°49'0 0.0
2018-Jan-19 03:58S 33°01' E 151°49'0 0.0
2018-Jan-19 03:28S 33°01' E 151°49'0 0.0
2018-Jan-19 02:58S 33°01' E 151°49'0 0.1
2018-Jan-19 02:28S 33°01' E 151°49'0 0.0
2018-Jan-19 01:58S 33°01' E 151°49'0 0.1
2018-Jan-19 01:28S 33°01' E 151°49'0 0.0
2018-Jan-19 00:58S 33°01' E 151°49'0 0.0
2018-Jan-19 00:28S 33°01' E 151°49'0 0.0
2018-Jan-18 23:58S 33°01' E 151°49'0 0.1
2018-Jan-18 23:28S 33°01' E 151°49'0 0.3
2018-Jan-18 22:58S 33°01' E 151°49'0 1.0
2018-Jan-18 22:30S 33°00' E 151°49'1 1.1
2018-Jan-18 22:00S 33°01' E 151°49'2 4.3
2018-Jan-18 21:30S 33°02' E 151°51'4 7.0
2018-Jan-18 20:58S 33°03' E 151°55'4 7.8
2018-Jan-18 20:30S 32°60' E 151°57'3 5.3
2018-Jan-18 20:00S 32°59' E 152°00'3 5.5
2018-Jan-18 19:30S 32°57' E 152°03'3 5.4
2018-Jan-18 19:00S 32°56' E 152°06'2 4.2
2018-Jan-18 18:30S 32°54' E 152°08'2 4.7
2018-Jan-18 18:00S 32°53' E 152°10'4 9.0
2018-Jan-18 17:30S 32°51' E 152°14'510.9
2018-Jan-18 17:00S 32°48' E 152°20'511.0
2018-Jan-18 16:30S 32°44' E 152°25'511.0
2018-Jan-18 16:00S 32°40' E 152°30'510.9
2018-Jan-18 15:30S 32°36' E 152°34'511.0
2018-Jan-18 15:00S 32°32' E 152°38'611.0
2018-Jan-18 14:30S 32°28' E 152°43'510.4
2018-Jan-18 14:00S 32°24' E 152°45'610.7
2018-Jan-18 13:29S 32°19' E 152°48'611.1
2018-Jan-18 12:59S 32°13' E 152°51'511.2
2018-Jan-18 12:30S 32°08' E 152°53'611.2
2018-Jan-18 11:59S 32°03' E 152°57'511.1
2018-Jan-18 11:29S 31°58' E 152°59'510.8
2018-Jan-18 11:00S 31°54' E 153°02'510.7
2018-Jan-18 10:30S 31°48' E 153°04'510.2
2018-Jan-18 10:00S 31°44' E 153°06'510.7
2018-Jan-18 09:30S 31°39' E 153°08'510.8
2018-Jan-18 09:00S 31°34' E 153°11'510.6
2018-Jan-18 08:30S 31°29' E 153°13'510.2
2018-Jan-18 08:00S 31°24' E 153°15'5 9.4
2018-Jan-18 07:30S 31°19' E 153°16'5 8.9
2018-Jan-18 06:59S 31°15' E 153°17'4 9.0
2018-Jan-18 06:30S 31°11' E 153°18'5 8.8
2018-Jan-18 05:59S 31°06' E 153°19'  
Track history (hours):
 
Tides and Currents Weather Stations Pressure Air Temp Water Temp Dewpoint Dewpoint Depression Visibility Wind Speed Wind Dir Waves Ship Positions

Ikan Bagat

Last reported at 2018-Jan-23 06:01 UTC. Time now 2018-Jan-23 06:26 UTC.
Position S 32°57' E 151°53'.

Length 229 m; draft 14.6 m.

Type: Ship. MMSI: 354375000.

Date/timePositionNaut miles runAvg speedWind from/ knotsBaromVisibWave heightAir tempDewpointWater temp
2018-Jan-23 06:01S 32°57' E 151°53'4 7.1
2018-Jan-23 05:31S 32°56' E 151°49'2 4.7
2018-Jan-23 05:01S 32°55' E 151°47'2 3.9
2018-Jan-23 04:31S 32°53' E 151°46'0 0.3
2018-Jan-23 03:59S 32°53' E 151°46'0 0.0
2018-Jan-23 03:29S 32°53' E 151°46'0 0.0
2018-Jan-23 02:56S 32°53' E 151°46'0 0.0
2018-Jan-23 02:26S 32°53' E 151°46'0 0.0
2018-Jan-23 01:59S 32°53' E 151°46'0 0.0
2018-Jan-23 01:26S 32°53' E 151°46'0 0.0
2018-Jan-23 00:56S 32°53' E 151°46'0 0.0
2018-Jan-23 00:29S 32°53' E 151°46'0 0.0
2018-Jan-22 23:56S 32°53' E 151°46'0 0.0
2018-Jan-22 23:29S 32°53' E 151°46'0 0.0
2018-Jan-22 22:59S 32°53' E 151°46'0 0.0
2018-Jan-22 22:29S 32°53' E 151°46'0 0.0
2018-Jan-22 21:56S 32°53' E 151°46'0 0.0
2018-Jan-22 21:17S 32°53' E 151°46'0 0.0
2018-Jan-22 20:56S 32°53' E 151°46'0 0.0
2018-Jan-22 20:26S 32°53' E 151°46'0 0.0
2018-Jan-22 19:59S 32°53' E 151°46'0 0.0
2018-Jan-22 19:29S 32°53' E 151°46'0 0.0
2018-Jan-22 17:32S 32°53' E 151°46'0 0.0
2018-Jan-22 17:20S 32°53' E 151°46'0 0.0
2018-Jan-22 16:59S 32°53' E 151°46'0 0.0
2018-Jan-22 16:29S 32°53' E 151°46'0 0.0
2018-Jan-22 15:59S 32°53' E 151°46'0 0.0
2018-Jan-22 15:26S 32°53' E 151°46'0 0.0
2018-Jan-22 14:59S 32°53' E 151°46'0 0.0
2018-Jan-22 13:53S 32°53' E 151°46'0 0.0
2018-Jan-22 13:29S 32°53' E 151°46'0 0.0
2018-Jan-22 12:56S 32°53' E 151°46'0 0.0
2018-Jan-22 12:26S 32°53' E 151°46'0 0.0
2018-Jan-22 11:56S 32°53' E 151°46'0 0.0
2018-Jan-22 11:29S 32°53' E 151°46'0 0.0
2018-Jan-22 10:59S 32°53' E 151°46'0 0.0
2018-Jan-22 10:26S 32°53' E 151°46'0 0.0
2018-Jan-22 09:56S 32°53' E 151°46'0 0.0
2018-Jan-22 09:29S 32°53' E 151°46'0 0.0
2018-Jan-22 08:59S 32°53' E 151°46'0 0.0
2018-Jan-22 08:26S 32°53' E 151°46'0 0.0
2018-Jan-22 07:56S 32°53' E 151°46'0 0.0
2018-Jan-22 07:29S 32°53' E 151°46'0 0.0
2018-Jan-22 06:59S 32°53' E 151°46'1 1.2
2018-Jan-22 06:30S 32°54' E 151°46'2 3.8
2018-Jan-22 06:01S 32°55' E 151°48'4 7.6
2018-Jan-22 05:30S 32°58' E 151°51'2 3.6
2018-Jan-22 05:00S 32°59' E 151°53'2 3.9
2018-Jan-22 04:31S 32°60' E 151°51'2 3.1
2018-Jan-22 04:00S 33°01' E 151°49'0 0.2
2018-Jan-22 03:28S 33°01' E 151°49'0 0.1
2018-Jan-22 02:58S 33°01' E 151°49'0 0.1
2018-Jan-22 02:28S 33°01' E 151°49'0 0.0
2018-Jan-22 01:58S 33°01' E 151°49'0 0.1
2018-Jan-22 01:28S 33°01' E 151°49'0 0.0
2018-Jan-22 00:58S 33°01' E 151°49'0 0.0
2018-Jan-22 00:28S 33°01' E 151°49'0 0.1
2018-Jan-21 23:58S 33°01' E 151°49'0 0.0
2018-Jan-21 23:28S 33°01' E 151°49'0 0.0
2018-Jan-21 22:58S 33°01' E 151°49'0 0.0
2018-Jan-21 22:28S 33°01' E 151°49'0 0.0
2018-Jan-21 21:58S 33°01' E 151°49'0 0.1
2018-Jan-21 21:25S 33°01' E 151°49'0 0.0
2018-Jan-21 20:58S 33°01' E 151°49'0 0.0
2018-Jan-21 20:28S 33°01' E 151°49'0 0.0
2018-Jan-21 19:58S 33°01' E 151°49'0 0.0
2018-Jan-21 19:25S 33°01' E 151°49'0 0.0
2018-Jan-21 18:58S 33°01' E 151°49'0 0.0
2018-Jan-21 18:28S 33°01' E 151°49'0 0.0
2018-Jan-21 17:58S 33°01' E 151°49'0 0.0
2018-Jan-21 17:28S 33°01' E 151°49'0 0.0
2018-Jan-21 16:58S 33°01' E 151°49'0 0.0
2018-Jan-21 16:28S 33°01' E 151°49'0 0.0
2018-Jan-21 15:58S 33°01' E 151°49'0 0.0
2018-Jan-21 15:28S 33°01' E 151°49'0 0.0
2018-Jan-21 14:58S 33°01' E 151°49'0 0.0
2018-Jan-21 14:28S 33°01' E 151°49'0 0.0
2018-Jan-21 13:58S 33°01' E 151°49'0 0.0
2018-Jan-21 13:28S 33°01' E 151°49'0 0.0
2018-Jan-21 12:58S 33°01' E 151°49'0 0.1
2018-Jan-21 12:28S 33°01' E 151°49'0 0.1
2018-Jan-21 11:58S 33°01' E 151°49'0 0.0
2018-Jan-21 11:28S 33°01' E 151°49'0 0.0
2018-Jan-21 10:58S 33°01' E 151°49'0 0.1
2018-Jan-21 10:28S 33°01' E 151°49'0 0.2
2018-Jan-21 09:58S 33°01' E 151°49'0 0.1
2018-Jan-21 09:28S 33°01' E 151°49'0 0.1
2018-Jan-21 08:55S 33°01' E 151°49'0 0.2
2018-Jan-21 08:28S 33°01' E 151°49'0 0.2
2018-Jan-21 07:58S 33°01' E 151°49'0 0.2
2018-Jan-21 07:28S 33°01' E 151°49'0 0.2
2018-Jan-21 06:58S 33°01' E 151°49'0 0.2
2018-Jan-21 06:28S 33°01' E 151°49'0 0.2
2018-Jan-21 05:58S 33°01' E 151°49'0 0.1
2018-Jan-21 05:28S 33°01' E 151°49'0 0.1
2018-Jan-21 04:58S 33°01' E 151°49'0 0.2
2018-Jan-21 04:28S 33°01' E 151°49'0 0.0
2018-Jan-21 03:58S 33°01' E 151°49'0 0.1
2018-Jan-21 03:28S 33°01' E 151°49'0 0.0
2018-Jan-21 02:58S 33°01' E 151°49'0 0.0
2018-Jan-21 02:28S 33°01' E 151°49'0 0.0
2018-Jan-21 01:58S 33°01' E 151°49'0 0.0
2018-Jan-21 01:28S 33°01' E 151°49'0 0.1
2018-Jan-21 00:55S 33°01' E 151°49'0 0.1
2018-Jan-21 00:28S 33°01' E 151°49'0 0.0
2018-Jan-20 23:58S 33°01' E 151°49'0 0.0
2018-Jan-20 23:28S 33°01' E 151°49'0 0.0
2018-Jan-20 22:58S 33°01' E 151°49'0 0.0
2018-Jan-20 22:28S 33°01' E 151°49'0 0.0
2018-Jan-20 21:58S 33°01' E 151°49'0 0.0
2018-Jan-20 21:28S 33°01' E 151°49'0 0.0
2018-Jan-20 20:58S 33°01' E 151°49'0 0.0
2018-Jan-20 20:28S 33°01' E 151°49'0 0.0
2018-Jan-20 19:58S 33°01' E 151°49'0 0.0
2018-Jan-20 19:28S 33°01' E 151°49'0 0.0
2018-Jan-20 18:58S 33°01' E 151°49'0 0.0
2018-Jan-20 18:28S 33°01' E 151°49'0 0.0
2018-Jan-20 17:58S 33°01' E 151°49'0 0.0
2018-Jan-20 17:28S 33°01' E 151°49'0 0.0
2018-Jan-20 16:58S 33°01' E 151°49'0 0.0
2018-Jan-20 16:28S 33°01' E 151°49'0 0.0
2018-Jan-20 15:58S 33°01' E 151°49'0 0.0
2018-Jan-20 15:28S 33°01' E 151°49'0 0.0
2018-Jan-20 14:58S 33°01' E 151°49'0 0.0
2018-Jan-20 14:28S 33°01' E 151°49'0 0.0
2018-Jan-20 13:58S 33°01' E 151°49'0 0.0
2018-Jan-20 13:28S 33°01' E 151°49'0 0.0
2018-Jan-20 12:58S 33°01' E 151°49'0 0.0
2018-Jan-20 12:25S 33°01' E 151°49'0 0.0
2018-Jan-20 11:55S 33°01' E 151°49'0 0.0
2018-Jan-20 11:28S 33°01' E 151°49'0 0.0
2018-Jan-20 10:58S 33°01' E 151°49'0 0.0
2018-Jan-20 10:28S 33°01' E 151°49'0 0.1
2018-Jan-20 09:58S 33°01' E 151°49'0 0.1
2018-Jan-20 09:28S 33°01' E 151°49'0 0.1
2018-Jan-20 08:58S 33°01' E 151°49'0 0.2
2018-Jan-20 08:22S 33°01' E 151°49'0 0.0
2018-Jan-20 07:58S 33°01' E 151°49'0 0.0
2018-Jan-20 07:28S 33°01' E 151°49'0 0.0
2018-Jan-20 06:55S 33°01' E 151°49'0 0.0
2018-Jan-20 06:28S 33°01' E 151°49'0 0.0
2018-Jan-20 05:58S 33°01' E 151°49'0 0.0
2018-Jan-20 05:28S 33°01' E 151°49'0 0.0
2018-Jan-20 04:58S 33°01' E 151°49'0 0.0
2018-Jan-20 04:28S 33°01' E 151°49'0 0.1
2018-Jan-20 03:58S 33°01' E 151°49'0 0.0
2018-Jan-20 03:28S 33°01' E 151°49'0 0.0
2018-Jan-20 02:58S 33°01' E 151°49'0 0.0
2018-Jan-20 02:28S 33°01' E 151°49'0 0.1
2018-Jan-20 01:58S 33°01' E 151°49'0 0.0
2018-Jan-20 01:25S 33°01' E 151°49'0 0.0
2018-Jan-20 00:55S 33°01' E 151°49'0 0.1
2018-Jan-20 00:25S 33°01' E 151°49'0 0.0
2018-Jan-19 23:55S 33°01' E 151°49'0 0.0
2018-Jan-19 23:28S 33°01' E 151°49'0 0.0
2018-Jan-19 22:55S 33°01' E 151°49'0 0.0
2018-Jan-19 22:28S 33°01' E 151°49'0 0.0
2018-Jan-19 21:55S 33°01' E 151°49'0 0.0
2018-Jan-19 21:28S 33°01' E 151°49'0 0.1
2018-Jan-19 20:58S 33°01' E 151°49'0 0.1
2018-Jan-19 20:28S 33°01' E 151°49'0 0.1
2018-Jan-19 19:58S 33°01' E 151°49'0 0.0
2018-Jan-19 19:28S 33°01' E 151°49'0 0.0
2018-Jan-19 18:58S 33°01' E 151°49'0 0.0
2018-Jan-19 18:28S 33°01' E 151°49'0 0.0
2018-Jan-19 17:55S 33°01' E 151°49'0 0.1
2018-Jan-19 17:28S 33°01' E 151°49'0 0.1
2018-Jan-19 16:58S 33°01' E 151°49'0 0.0
2018-Jan-19 16:25S 33°01' E 151°49'0 0.0
2018-Jan-19 15:59S 33°01' E 151°49'0 0.1
2018-Jan-19 15:25S 33°01' E 151°49'0 0.0
2018-Jan-19 14:49S 33°01' E 151°49'0 0.1
2018-Jan-19 14:25S 33°01' E 151°49'0 0.1
2018-Jan-19 13:58S 33°01' E 151°49'0 0.0
2018-Jan-19 13:28S 33°01' E 151°49'0 0.1
2018-Jan-19 12:55S 33°01' E 151°49'0 0.1
2018-Jan-19 12:28S 33°01' E 151°49'0 0.1
2018-Jan-19 11:58S 33°01' E 151°49'0 0.0
2018-Jan-19 11:28S 33°01' E 151°49'0 0.0
2018-Jan-19 10:58S 33°01' E 151°49'0 0.1
2018-Jan-19 10:28S 33°01' E 151°49'0 0.1
2018-Jan-19 09:52S 33°01' E 151°49'0 0.0
2018-Jan-19 09:28S 33°01' E 151°49'0 0.0
2018-Jan-19 08:55S 33°01' E 151°49'0 0.0
2018-Jan-19 08:28S 33°01' E 151°49'0 0.0
2018-Jan-19 07:58S 33°01' E 151°49'0 0.1
2018-Jan-19 07:28S 33°01' E 151°49'0 0.1
2018-Jan-19 06:58S 33°01' E 151°49'0 0.0
2018-Jan-19 06:28S 33°01' E 151°49'0 0.0
2018-Jan-19 05:58S 33°01' E 151°49'0 0.0
2018-Jan-19 05:28S 33°01' E 151°49'0 0.0
2018-Jan-19 04:58S 33°01' E 151°49'0 0.1
2018-Jan-19 04:28S 33°01' E 151°49'0 0.0
2018-Jan-19 03:58S 33°01' E 151°49'0 0.0
2018-Jan-19 03:28S 33°01' E 151°49'0 0.0
2018-Jan-19 02:58S 33°01' E 151°49'0 0.1
2018-Jan-19 02:28S 33°01' E 151°49'0 0.0
2018-Jan-19 01:58S 33°01' E 151°49'0 0.1
2018-Jan-19 01:28S 33°01' E 151°49'0 0.0
2018-Jan-19 00:58S 33°01' E 151°49'0 0.0
2018-Jan-19 00:28S 33°01' E 151°49'0 0.0
2018-Jan-18 23:58S 33°01' E 151°49'0 0.1
2018-Jan-18 23:28S 33°01' E 151°49'0 0.3
2018-Jan-18 22:58S 33°01' E 151°49'0 1.0
2018-Jan-18 22:30S 33°00' E 151°49'1 1.1
2018-Jan-18 22:00S 33°01' E 151°49'2 4.3
2018-Jan-18 21:30S 33°02' E 151°51'4 7.0
2018-Jan-18 20:58S 33°03' E 151°55'4 7.8
2018-Jan-18 20:30S 32°60' E 151°57'3 5.3
2018-Jan-18 20:00S 32°59' E 152°00'3 5.5
2018-Jan-18 19:30S 32°57' E 152°03'3 5.4
2018-Jan-18 19:00S 32°56' E 152°06'2 4.2
2018-Jan-18 18:30S 32°54' E 152°08'2 4.7
2018-Jan-18 18:00S 32°53' E 152°10'4 9.0
2018-Jan-18 17:30S 32°51' E 152°14'510.9
2018-Jan-18 17:00S 32°48' E 152°20'511.0
2018-Jan-18 16:30S 32°44' E 152°25'511.0
2018-Jan-18 16:00S 32°40' E 152°30'510.9
2018-Jan-18 15:30S 32°36' E 152°34'511.0
2018-Jan-18 15:00S 32°32' E 152°38'611.0
2018-Jan-18 14:30S 32°28' E 152°43'510.4
2018-Jan-18 14:00S 32°24' E 152°45'610.7
2018-Jan-18 13:29S 32°19' E 152°48'611.1
2018-Jan-18 12:59S 32°13' E 152°51'511.2
2018-Jan-18 12:30S 32°08' E 152°53'611.2
2018-Jan-18 11:59S 32°03' E 152°57'511.1
2018-Jan-18 11:29S 31°58' E 152°59'510.8
2018-Jan-18 11:00S 31°54' E 153°02'510.7
2018-Jan-18 10:30S 31°48' E 153°04'510.2
2018-Jan-18 10:00S 31°44' E 153°06'510.7
2018-Jan-18 09:30S 31°39' E 153°08'510.8
2018-Jan-18 09:00S 31°34' E 153°11'510.6
2018-Jan-18 08:30S 31°29' E 153°13'510.2
2018-Jan-18 08:00S 31°24' E 153°15'5 9.4
2018-Jan-18 07:30S 31°19' E 153°16'5 8.9
2018-Jan-18 06:59S 31°15' E 153°17'4 9.0
2018-Jan-18 06:30S 31°11' E 153°18'5 8.8
2018-Jan-18 05:59S 31°06' E 153°19'  

Dump ship's entire track history